sensor_id;sensor_type;location;lat;lon;timestamp;temperature;humidity
53282;DHT22;39167;52.794;6.892;2023-04-06T00:01:50;3.80;99.90
53282;DHT22;39167;52.794;6.892;2023-04-06T00:04:16;3.70;99.90
53282;DHT22;39167;52.794;6.892;2023-04-06T00:06:42;3.70;99.90
53282;DHT22;39167;52.794;6.892;2023-04-06T00:09:07;3.70;99.90
53282;DHT22;39167;52.794;6.892;2023-04-06T00:11:34;3.60;99.90
53282;DHT22;39167;52.794;6.892;2023-04-06T00:13:59;3.60;99.90
53282;DHT22;39167;52.794;6.892;2023-04-06T00:16:25;3.60;99.90
53282;DHT22;39167;52.794;6.892;2023-04-06T00:18:51;3.50;99.90
53282;DHT22;39167;52.794;6.892;2023-04-06T00:21:17;3.50;99.90
53282;DHT22;39167;52.794;6.892;2023-04-06T00:23:43;3.50;99.90
53282;DHT22;39167;52.794;6.892;2023-04-06T00:26:09;3.40;99.90
53282;DHT22;39167;52.794;6.892;2023-04-06T00:28:37;3.40;99.90
53282;DHT22;39167;52.794;6.892;2023-04-06T00:31:02;3.40;99.90
53282;DHT22;39167;52.794;6.892;2023-04-06T00:33:28;3.40;99.90
53282;DHT22;39167;52.794;6.892;2023-04-06T00:35:54;3.30;99.90
53282;DHT22;39167;52.794;6.892;2023-04-06T00:38:19;3.30;99.90
53282;DHT22;39167;52.794;6.892;2023-04-06T00:40:46;3.30;99.90
53282;DHT22;39167;52.794;6.892;2023-04-06T00:43:12;3.20;99.90
53282;DHT22;39167;52.794;6.892;2023-04-06T00:45:39;3.10;99.90
53282;DHT22;39167;52.794;6.892;2023-04-06T00:48:06;3.10;99.90
53282;DHT22;39167;52.794;6.892;2023-04-06T00:50:33;3.10;99.90
53282;DHT22;39167;52.794;6.892;2023-04-06T00:52:59;3.10;99.90
53282;DHT22;39167;52.794;6.892;2023-04-06T00:55:28;3.00;99.90
53282;DHT22;39167;52.794;6.892;2023-04-06T00:57:57;3.00;99.90
53282;DHT22;39167;52.794;6.892;2023-04-06T01:00:24;3.00;99.90
53282;DHT22;39167;52.794;6.892;2023-04-06T01:02:50;2.60;99.90
53282;DHT22;39167;52.794;6.892;2023-04-06T01:05:16;3.70;99.90
53282;DHT22;39167;52.794;6.892;2023-04-06T01:07:42;2.90;99.90
53282;DHT22;39167;52.794;6.892;2023-04-06T01:10:08;2.80;99.90
53282;DHT22;39167;52.794;6.892;2023-04-06T01:12:34;2.80;99.90
53282;DHT22;39167;52.794;6.892;2023-04-06T01:14:59;2.80;99.90
53282;DHT22;39167;52.794;6.892;2023-04-06T01:17:25;2.80;99.90
53282;DHT22;39167;52.794;6.892;2023-04-06T01:19:51;2.80;99.90
53282;DHT22;39167;52.794;6.892;2023-04-06T01:22:19;2.70;99.90
53282;DHT22;39167;52.794;6.892;2023-04-06T01:24:45;2.70;99.90
53282;DHT22;39167;52.794;6.892;2023-04-06T01:27:12;2.70;99.90
53282;DHT22;39167;52.794;6.892;2023-04-06T01:29:38;2.60;99.90
53282;DHT22;39167;52.794;6.892;2023-04-06T01:32:07;2.60;99.90
53282;DHT22;39167;52.794;6.892;2023-04-06T01:34:33;2.70;99.90
53282;DHT22;39167;52.794;6.892;2023-04-06T01:36:58;2.60;99.90
53282;DHT22;39167;52.794;6.892;2023-04-06T01:39:25;2.60;99.90
53282;DHT22;39167;52.794;6.892;2023-04-06T01:41:51;2.60;99.90
53282;DHT22;39167;52.794;6.892;2023-04-06T01:44:18;2.50;99.90
53282;DHT22;39167;52.794;6.892;2023-04-06T01:46:44;2.50;99.90
53282;DHT22;39167;52.794;6.892;2023-04-06T01:49:11;2.50;99.90
53282;DHT22;39167;52.794;6.892;2023-04-06T01:51:37;2.50;99.90
53282;DHT22;39167;52.794;6.892;2023-04-06T01:54:03;2.50;99.90
53282;DHT22;39167;52.794;6.892;2023-04-06T01:56:29;2.50;99.90
53282;DHT22;39167;52.794;6.892;2023-04-06T01:58:54;2.50;99.90
53282;DHT22;39167;52.794;6.892;2023-04-06T02:01:21;2.50;99.90
53282;DHT22;39167;52.794;6.892;2023-04-06T02:03:47;2.40;99.90
53282;DHT22;39167;52.794;6.892;2023-04-06T02:06:12;2.40;99.90
53282;DHT22;39167;52.794;6.892;2023-04-06T02:08:38;2.40;99.90
53282;DHT22;39167;52.794;6.892;2023-04-06T02:11:04;2.60;99.90
53282;DHT22;39167;52.794;6.892;2023-04-06T02:13:30;2.40;99.90
53282;DHT22;39167;52.794;6.892;2023-04-06T02:15:55;2.30;99.90
53282;DHT22;39167;52.794;6.892;2023-04-06T02:18:22;2.30;99.90
53282;DHT22;39167;52.794;6.892;2023-04-06T02:20:48;2.30;99.90
53282;DHT22;39167;52.794;6.892;2023-04-06T02:23:14;2.30;99.90
53282;DHT22;39167;52.794;6.892;2023-04-06T02:25:40;2.20;99.90
53282;DHT22;39167;52.794;6.892;2023-04-06T02:28:06;2.20;99.90
53282;DHT22;39167;52.794;6.892;2023-04-06T02:30:32;2.20;99.90
53282;DHT22;39167;52.794;6.892;2023-04-06T02:33:00;2.20;99.90
53282;DHT22;39167;52.794;6.892;2023-04-06T02:35:27;2.10;99.90
53282;DHT22;39167;52.794;6.892;2023-04-06T02:37:53;3.10;99.90
53282;DHT22;39167;52.794;6.892;2023-04-06T02:40:18;2.80;99.90
53282;DHT22;39167;52.794;6.892;2023-04-06T02:42:45;2.00;99.90
53282;DHT22;39167;52.794;6.892;2023-04-06T02:45:10;2.10;99.90
53282;DHT22;39167;52.794;6.892;2023-04-06T02:47:36;2.00;99.90
53282;DHT22;39167;52.794;6.892;2023-04-06T02:50:02;1.90;99.90
53282;DHT22;39167;52.794;6.892;2023-04-06T02:52:28;1.90;99.90
53282;DHT22;39167;52.794;6.892;2023-04-06T02:54:53;3.00;99.90
53282;DHT22;39167;52.794;6.892;2023-04-06T02:57:19;1.80;99.90
53282;DHT22;39167;52.794;6.892;2023-04-06T02:59:48;1.90;99.90
53282;DHT22;39167;52.794;6.892;2023-04-06T03:02:14;1.90;99.90
53282;DHT22;39167;52.794;6.892;2023-04-06T03:04:41;1.90;99.90
53282;DHT22;39167;52.794;6.892;2023-04-06T03:07:07;1.80;99.90
53282;DHT22;39167;52.794;6.892;2023-04-06T03:09:33;2.20;99.90
53282;DHT22;39167;52.794;6.892;2023-04-06T03:11:59;1.80;99.90
53282;DHT22;39167;52.794;6.892;2023-04-06T03:14:25;1.80;99.90
53282;DHT22;39167;52.794;6.892;2023-04-06T03:16:51;1.80;99.90
53282;DHT22;39167;52.794;6.892;2023-04-06T03:19:16;1.80;99.90
53282;DHT22;39167;52.794;6.892;2023-04-06T03:21:42;1.80;99.90
53282;DHT22;39167;52.794;6.892;2023-04-06T03:24:08;1.80;99.90
53282;DHT22;39167;52.794;6.892;2023-04-06T03:26:34;1.80;99.90
53282;DHT22;39167;52.794;6.892;2023-04-06T03:29:00;1.80;99.90
53282;DHT22;39167;52.794;6.892;2023-04-06T03:31:26;1.70;99.90
53282;DHT22;39167;52.794;6.892;2023-04-06T03:33:52;1.70;99.90
53282;DHT22;39167;52.794;6.892;2023-04-06T03:36:18;1.70;99.90
53282;DHT22;39167;52.794;6.892;2023-04-06T03:38:44;1.70;99.90
53282;DHT22;39167;52.794;6.892;2023-04-06T03:41:10;3.00;99.90
53282;DHT22;39167;52.794;6.892;2023-04-06T03:43:36;1.70;99.90
53282;DHT22;39167;52.794;6.892;2023-04-06T03:46:01;1.70;99.90
53282;DHT22;39167;52.794;6.892;2023-04-06T03:48:27;1.70;99.90
53282;DHT22;39167;52.794;6.892;2023-04-06T03:50:53;1.70;99.90
53282;DHT22;39167;52.794;6.892;2023-04-06T03:53:19;1.60;99.90
53282;DHT22;39167;52.794;6.892;2023-04-06T03:55:44;1.60;99.90
53282;DHT22;39167;52.794;6.892;2023-04-06T03:58:10;1.60;99.90
53282;DHT22;39167;52.794;6.892;2023-04-06T04:00:36;1.60;99.90
53282;DHT22;39167;52.794;6.892;2023-04-06T04:03:02;1.60;99.90
53282;DHT22;39167;52.794;6.892;2023-04-06T04:05:28;1.60;99.90
53282;DHT22;39167;52.794;6.892;2023-04-06T04:07:54;1.60;99.90
53282;DHT22;39167;52.794;6.892;2023-04-06T04:10:19;2.60;99.90
53282;DHT22;39167;52.794;6.892;2023-04-06T04:12:45;1.60;99.90
53282;DHT22;39167;52.794;6.892;2023-04-06T04:15:11;1.60;99.90
53282;DHT22;39167;52.794;6.892;2023-04-06T04:17:37;1.60;99.90
53282;DHT22;39167;52.794;6.892;2023-04-06T04:20:02;1.80;99.90
53282;DHT22;39167;52.794;6.892;2023-04-06T04:22:28;1.60;99.90
53282;DHT22;39167;52.794;6.892;2023-04-06T04:24:54;1.60;99.90
53282;DHT22;39167;52.794;6.892;2023-04-06T04:27:20;1.60;99.90
53282;DHT22;39167;52.794;6.892;2023-04-06T04:29:46;1.80;99.90
53282;DHT22;39167;52.794;6.892;2023-04-06T04:32:12;1.50;99.90
53282;DHT22;39167;52.794;6.892;2023-04-06T04:34:37;2.20;99.90
53282;DHT22;39167;52.794;6.892;2023-04-06T04:37:06;1.50;99.90
53282;DHT22;39167;52.794;6.892;2023-04-06T04:39:32;1.70;99.90
53282;DHT22;39167;52.794;6.892;2023-04-06T04:41:58;1.40;99.90
53282;DHT22;39167;52.794;6.892;2023-04-06T04:44:23;1.40;99.90
53282;DHT22;39167;52.794;6.892;2023-04-06T04:46:49;1.40;99.90
53282;DHT22;39167;52.794;6.892;2023-04-06T04:49:15;1.40;99.90
53282;DHT22;39167;52.794;6.892;2023-04-06T04:51:41;1.40;99.90
53282;DHT22;39167;52.794;6.892;2023-04-06T04:54:07;1.40;99.90
53282;DHT22;39167;52.794;6.892;2023-04-06T04:56:32;0.50;99.90
53282;DHT22;39167;52.794;6.892;2023-04-06T04:58:58;1.30;99.90
53282;DHT22;39167;52.794;6.892;2023-04-06T05:01:24;1.30;99.90
53282;DHT22;39167;52.794;6.892;2023-04-06T05:03:50;2.60;99.90
53282;DHT22;39167;52.794;6.892;2023-04-06T05:06:15;1.30;99.90
53282;DHT22;39167;52.794;6.892;2023-04-06T05:08:41;1.30;99.90
53282;DHT22;39167;52.794;6.892;2023-04-06T05:11:08;1.30;99.90
53282;DHT22;39167;52.794;6.892;2023-04-06T05:13:34;1.20;99.90
53282;DHT22;39167;52.794;6.892;2023-04-06T05:16:00;1.20;99.90
53282;DHT22;39167;52.794;6.892;2023-04-06T05:18:26;1.20;99.90
53282;DHT22;39167;52.794;6.892;2023-04-06T05:20:51;2.40;99.90
53282;DHT22;39167;52.794;6.892;2023-04-06T05:23:17;1.20;99.90
53282;DHT22;39167;52.794;6.892;2023-04-06T05:25:43;1.70;99.90
53282;DHT22;39167;52.794;6.892;2023-04-06T05:28:09;1.90;99.90
53282;DHT22;39167;52.794;6.892;2023-04-06T05:30:35;1.30;99.90
53282;DHT22;39167;52.794;6.892;2023-04-06T05:33:03;1.30;99.90
53282;DHT22;39167;52.794;6.892;2023-04-06T05:35:29;1.30;99.90
53282;DHT22;39167;52.794;6.892;2023-04-06T05:37:56;1.30;99.90
53282;DHT22;39167;52.794;6.892;2023-04-06T05:40:21;2.10;99.90
53282;DHT22;39167;52.794;6.892;2023-04-06T05:42:47;1.30;99.90
53282;DHT22;39167;52.794;6.892;2023-04-06T05:45:15;2.50;99.90
53282;DHT22;39167;52.794;6.892;2023-04-06T05:47:43;1.30;99.90
53282;DHT22;39167;52.794;6.892;2023-04-06T05:50:12;1.40;99.90
53282;DHT22;39167;52.794;6.892;2023-04-06T05:52:38;1.60;99.90
53282;DHT22;39167;52.794;6.892;2023-04-06T05:55:04;1.40;99.90
53282;DHT22;39167;52.794;6.892;2023-04-06T05:57:30;1.40;99.90
53282;DHT22;39167;52.794;6.892;2023-04-06T05:59:55;1.40;99.90
53282;DHT22;39167;52.794;6.892;2023-04-06T06:02:21;1.40;99.90
53282;DHT22;39167;52.794;6.892;2023-04-06T06:04:47;1.40;99.90
53282;DHT22;39167;52.794;6.892;2023-04-06T06:07:14;2.40;99.90
53282;DHT22;39167;52.794;6.892;2023-04-06T06:09:40;1.50;99.90
53282;DHT22;39167;52.794;6.892;2023-04-06T06:12:06;1.60;99.90
53282;DHT22;39167;52.794;6.892;2023-04-06T06:14:32;1.60;99.90
53282;DHT22;39167;52.794;6.892;2023-04-06T06:16:57;1.60;99.90
53282;DHT22;39167;52.794;6.892;2023-04-06T06:19:23;1.70;99.90
53282;DHT22;39167;52.794;6.892;2023-04-06T06:21:49;1.70;99.90
53282;DHT22;39167;52.794;6.892;2023-04-06T06:24:15;1.70;99.90
53282;DHT22;39167;52.794;6.892;2023-04-06T06:26:41;1.80;99.90
53282;DHT22;39167;52.794;6.892;2023-04-06T06:29:07;1.80;99.90
53282;DHT22;39167;52.794;6.892;2023-04-06T06:31:32;1.90;99.90
53282;DHT22;39167;52.794;6.892;2023-04-06T06:33:58;2.00;99.90
53282;DHT22;39167;52.794;6.892;2023-04-06T06:36:25;2.00;99.90
53282;DHT22;39167;52.794;6.892;2023-04-06T06:38:51;2.10;99.90
53282;DHT22;39167;52.794;6.892;2023-04-06T06:41:17;2.10;99.90
53282;DHT22;39167;52.794;6.892;2023-04-06T06:43:43;2.20;99.90
53282;DHT22;39167;52.794;6.892;2023-04-06T06:46:08;2.20;99.90
53282;DHT22;39167;52.794;6.892;2023-04-06T06:48:34;2.30;99.90
53282;DHT22;39167;52.794;6.892;2023-04-06T06:51:00;2.30;99.90
53282;DHT22;39167;52.794;6.892;2023-04-06T06:53:26;2.30;99.90
53282;DHT22;39167;52.794;6.892;2023-04-06T06:55:52;2.60;99.90
53282;DHT22;39167;52.794;6.892;2023-04-06T06:58:18;2.70;99.90
53282;DHT22;39167;52.794;6.892;2023-04-06T07:00:45;2.50;99.90
53282;DHT22;39167;52.794;6.892;2023-04-06T07:03:11;2.60;99.90
53282;DHT22;39167;52.794;6.892;2023-04-06T07:05:37;2.60;99.90
53282;DHT22;39167;52.794;6.892;2023-04-06T07:08:03;2.70;99.90
53282;DHT22;39167;52.794;6.892;2023-04-06T07:10:29;1.80;99.90
53282;DHT22;39167;52.794;6.892;2023-04-06T07:12:55;2.80;99.90
53282;DHT22;39167;52.794;6.892;2023-04-06T07:15:20;2.80;99.90
53282;DHT22;39167;52.794;6.892;2023-04-06T07:17:46;2.90;99.90
53282;DHT22;39167;52.794;6.892;2023-04-06T07:20:13;3.00;99.90
53282;DHT22;39167;52.794;6.892;2023-04-06T07:22:39;3.10;99.90
53282;DHT22;39167;52.794;6.892;2023-04-06T07:25:05;3.10;99.90
53282;DHT22;39167;52.794;6.892;2023-04-06T07:27:31;3.20;99.90
53282;DHT22;39167;52.794;6.892;2023-04-06T07:29:57;3.20;99.90
53282;DHT22;39167;52.794;6.892;2023-04-06T07:32:23;3.30;99.90
53282;DHT22;39167;52.794;6.892;2023-04-06T07:34:49;3.40;99.90
53282;DHT22;39167;52.794;6.892;2023-04-06T07:37:14;3.50;99.90
53282;DHT22;39167;52.794;6.892;2023-04-06T07:39:40;3.60;99.90
53282;DHT22;39167;52.794;6.892;2023-04-06T07:42:06;3.70;99.90
53282;DHT22;39167;52.794;6.892;2023-04-06T07:44:32;3.80;99.90
53282;DHT22;39167;52.794;6.892;2023-04-06T07:46:58;3.90;99.90
53282;DHT22;39167;52.794;6.892;2023-04-06T07:49:23;4.00;99.90
53282;DHT22;39167;52.794;6.892;2023-04-06T07:51:49;4.20;99.90
53282;DHT22;39167;52.794;6.892;2023-04-06T07:54:15;4.20;99.90
53282;DHT22;39167;52.794;6.892;2023-04-06T07:56:41;4.30;99.90
53282;DHT22;39167;52.794;6.892;2023-04-06T07:59:07;4.30;99.90
53282;DHT22;39167;52.794;6.892;2023-04-06T08:01:32;4.40;99.90
53282;DHT22;39167;52.794;6.892;2023-04-06T08:03:58;4.50;99.90
53282;DHT22;39167;52.794;6.892;2023-04-06T08:06:25;4.60;99.90
53282;DHT22;39167;52.794;6.892;2023-04-06T08:08:51;4.70;99.90
53282;DHT22;39167;52.794;6.892;2023-04-06T08:11:17;4.80;99.90
53282;DHT22;39167;52.794;6.892;2023-04-06T08:13:43;5.00;99.90
53282;DHT22;39167;52.794;6.892;2023-04-06T08:16:09;5.10;99.90
53282;DHT22;39167;52.794;6.892;2023-04-06T08:18:35;5.20;99.90
53282;DHT22;39167;52.794;6.892;2023-04-06T08:21:00;5.40;99.90
53282;DHT22;39167;52.794;6.892;2023-04-06T08:23:26;5.50;99.90
53282;DHT22;39167;52.794;6.892;2023-04-06T08:25:52;5.60;99.90
53282;DHT22;39167;52.794;6.892;2023-04-06T08:28:21;5.70;99.90
53282;DHT22;39167;52.794;6.892;2023-04-06T08:30:47;5.80;99.90
53282;DHT22;39167;52.794;6.892;2023-04-06T08:33:13;5.90;99.90
53282;DHT22;39167;52.794;6.892;2023-04-06T08:35:38;6.00;99.90
53282;DHT22;39167;52.794;6.892;2023-04-06T08:38:04;6.10;99.90
53282;DHT22;39167;52.794;6.892;2023-04-06T08:40:38;6.20;99.90
53282;DHT22;39167;52.794;6.892;2023-04-06T08:43:08;6.40;99.90
53282;DHT22;39167;52.794;6.892;2023-04-06T08:45:35;6.50;99.90
53282;DHT22;39167;52.794;6.892;2023-04-06T08:48:02;6.70;99.90
53282;DHT22;39167;52.794;6.892;2023-04-06T08:50:30;6.80;99.90
53282;DHT22;39167;52.794;6.892;2023-04-06T08:52:56;7.00;99.90
53282;DHT22;39167;52.794;6.892;2023-04-06T08:55:22;7.10;99.90
53282;DHT22;39167;52.794;6.892;2023-04-06T08:57:48;7.30;99.90
53282;DHT22;39167;52.794;6.892;2023-04-06T09:00:15;7.40;99.90
53282;DHT22;39167;52.794;6.892;2023-04-06T09:02:42;7.50;99.90
53282;DHT22;39167;52.794;6.892;2023-04-06T09:05:09;7.70;99.90
53282;DHT22;39167;52.794;6.892;2023-04-06T09:07:36;7.80;99.90
53282;DHT22;39167;52.794;6.892;2023-04-06T09:10:06;7.90;99.90
53282;DHT22;39167;52.794;6.892;2023-04-06T09:12:32;8.00;99.90
53282;DHT22;39167;52.794;6.892;2023-04-06T09:14:59;8.10;99.90
53282;DHT22;39167;52.794;6.892;2023-04-06T09:17:30;8.20;99.90
53282;DHT22;39167;52.794;6.892;2023-04-06T09:19:58;8.30;99.90
53282;DHT22;39167;52.794;6.892;2023-04-06T09:22:24;8.40;99.90
53282;DHT22;39167;52.794;6.892;2023-04-06T09:24:53;8.60;99.90
53282;DHT22;39167;52.794;6.892;2023-04-06T09:27:33;8.70;99.90
53282;DHT22;39167;52.794;6.892;2023-04-06T09:30:10;8.90;99.90
53282;DHT22;39167;52.794;6.892;2023-04-06T09:32:49;9.00;99.90
53282;DHT22;39167;52.794;6.892;2023-04-06T09:35:16;9.20;99.90
53282;DHT22;39167;52.794;6.892;2023-04-06T09:37:45;9.40;99.90
53282;DHT22;39167;52.794;6.892;2023-04-06T09:40:11;10.00;99.90
53282;DHT22;39167;52.794;6.892;2023-04-06T09:42:41;9.60;99.90
53282;DHT22;39167;52.794;6.892;2023-04-06T09:45:07;9.70;99.90
53282;DHT22;39167;52.794;6.892;2023-04-06T09:47:36;9.70;99.90
53282;DHT22;39167;52.794;6.892;2023-04-06T09:50:03;9.80;99.90
53282;DHT22;39167;52.794;6.892;2023-04-06T09:52:49;9.80;99.90
53282;DHT22;39167;52.794;6.892;2023-04-06T09:55:35;9.80;99.90
53282;DHT22;39167;52.794;6.892;2023-04-06T09:58:06;9.90;99.90
53282;DHT22;39167;52.794;6.892;2023-04-06T10:00:40;10.00;99.90
53282;DHT22;39167;52.794;6.892;2023-04-06T10:05:57;10.10;99.90
53282;DHT22;39167;52.794;6.892;2023-04-06T10:08:27;10.10;99.90
53282;DHT22;39167;52.794;6.892;2023-04-06T10:10:54;10.10;99.90
53282;DHT22;39167;52.794;6.892;2023-04-06T10:13:20;10.10;99.90
53282;DHT22;39167;52.794;6.892;2023-04-06T10:15:46;9.80;99.90
53282;DHT22;39167;52.794;6.892;2023-04-06T10:18:15;10.10;99.90
53282;DHT22;39167;52.794;6.892;2023-04-06T10:20:57;10.20;99.90
53282;DHT22;39167;52.794;6.892;2023-04-06T10:23:40;10.20;99.90
53282;DHT22;39167;52.794;6.892;2023-04-06T10:26:13;10.30;99.90
53282;DHT22;39167;52.794;6.892;2023-04-06T10:28:45;10.30;99.90
53282;DHT22;39167;52.794;6.892;2023-04-06T10:31:11;10.80;99.90
53282;DHT22;39167;52.794;6.892;2023-04-06T10:33:37;10.50;99.90
53282;DHT22;39167;52.794;6.892;2023-04-06T10:38:37;10.80;99.90
53282;DHT22;39167;52.794;6.892;2023-04-06T10:41:08;10.90;99.90
53282;DHT22;39167;52.794;6.892;2023-04-06T10:43:38;10.90;99.90
53282;DHT22;39167;52.794;6.892;2023-04-06T10:46:06;11.00;99.90
53282;DHT22;39167;52.794;6.892;2023-04-06T10:48:40;11.00;99.90
53282;DHT22;39167;52.794;6.892;2023-04-06T10:51:17;11.00;99.90
53282;DHT22;39167;52.794;6.892;2023-04-06T10:53:44;11.10;99.90
53282;DHT22;39167;52.794;6.892;2023-04-06T10:56:13;11.10;99.90
53282;DHT22;39167;52.794;6.892;2023-04-06T11:01:16;11.30;99.90
53282;DHT22;39167;52.794;6.892;2023-04-06T11:03:46;11.30;99.90
53282;DHT22;39167;52.794;6.892;2023-04-06T11:06:18;11.30;99.90
53282;DHT22;39167;52.794;6.892;2023-04-06T11:08:45;11.40;99.90
53282;DHT22;39167;52.794;6.892;2023-04-06T11:11:15;11.50;99.90
53282;DHT22;39167;52.794;6.892;2023-04-06T11:16:23;11.60;99.90
53282;DHT22;39167;52.794;6.892;2023-04-06T11:21:31;11.70;99.90
53282;DHT22;39167;52.794;6.892;2023-04-06T11:24:05;11.70;99.90
53282;DHT22;39167;52.794;6.892;2023-04-06T11:26:31;11.80;99.90
53282;DHT22;39167;52.794;6.892;2023-04-06T11:28:57;11.80;99.90
53282;DHT22;39167;52.794;6.892;2023-04-06T11:31:25;11.80;99.90
53282;DHT22;39167;52.794;6.892;2023-04-06T11:33:58;11.80;99.90
53282;DHT22;39167;52.794;6.892;2023-04-06T11:36:27;11.70;99.90
53282;DHT22;39167;52.794;6.892;2023-04-06T11:38:56;11.70;99.90
53282;DHT22;39167;52.794;6.892;2023-04-06T11:41:23;11.90;99.90
53282;DHT22;39167;52.794;6.892;2023-04-06T11:43:51;11.80;99.90
53282;DHT22;39167;52.794;6.892;2023-04-06T11:46:20;11.90;99.90
53282;DHT22;39167;52.794;6.892;2023-04-06T11:48:46;12.00;99.90
53282;DHT22;39167;52.794;6.892;2023-04-06T11:51:12;12.00;99.90
53282;DHT22;39167;52.794;6.892;2023-04-06T11:53:44;12.10;99.90
53282;DHT22;39167;52.794;6.892;2023-04-06T11:56:11;12.10;99.90
53282;DHT22;39167;52.794;6.892;2023-04-06T11:58:37;12.20;99.90
53282;DHT22;39167;52.794;6.892;2023-04-06T12:01:04;12.30;99.90
53282;DHT22;39167;52.794;6.892;2023-04-06T12:03:30;12.40;99.90
53282;DHT22;39167;52.794;6.892;2023-04-06T12:05:55;12.40;99.90
53282;DHT22;39167;52.794;6.892;2023-04-06T12:08:21;12.40;99.90
53282;DHT22;39167;52.794;6.892;2023-04-06T12:10:50;12.40;99.90
53282;DHT22;39167;52.794;6.892;2023-04-06T12:13:16;12.50;99.90
53282;DHT22;39167;52.794;6.892;2023-04-06T12:15:42;12.50;99.60
53282;DHT22;39167;52.794;6.892;2023-04-06T12:18:08;12.50;99.40
53282;DHT22;39167;52.794;6.892;2023-04-06T12:20:34;12.50;99.40
53282;DHT22;39167;52.794;6.892;2023-04-06T12:23:00;12.50;99.30
53282;DHT22;39167;52.794;6.892;2023-04-06T12:25:25;12.50;99.10
53282;DHT22;39167;52.794;6.892;2023-04-06T12:27:51;12.50;99.20
53282;DHT22;39167;52.794;6.892;2023-04-06T12:30:17;12.50;99.10
53282;DHT22;39167;52.794;6.892;2023-04-06T12:32:43;12.60;98.90
53282;DHT22;39167;52.794;6.892;2023-04-06T12:35:09;12.60;98.70
53282;DHT22;39167;52.794;6.892;2023-04-06T12:37:34;12.60;98.50
53282;DHT22;39167;52.794;6.892;2023-04-06T12:40:00;12.60;98.40
53282;DHT22;39167;52.794;6.892;2023-04-06T12:42:27;12.70;98.10
53282;DHT22;39167;52.794;6.892;2023-04-06T12:44:53;12.70;98.00
53282;DHT22;39167;52.794;6.892;2023-04-06T12:47:18;12.70;98.20
53282;DHT22;39167;52.794;6.892;2023-04-06T12:49:44;12.80;98.00
53282;DHT22;39167;52.794;6.892;2023-04-06T12:52:10;12.80;97.90
53282;DHT22;39167;52.794;6.892;2023-04-06T12:54:36;12.80;97.90
53282;DHT22;39167;52.794;6.892;2023-04-06T12:57:02;12.90;97.80
53282;DHT22;39167;52.794;6.892;2023-04-06T12:59:28;12.80;97.40
53282;DHT22;39167;52.794;6.892;2023-04-06T13:01:59;12.80;97.60
53282;DHT22;39167;52.794;6.892;2023-04-06T13:04:25;12.80;97.60
53282;DHT22;39167;52.794;6.892;2023-04-06T13:06:51;12.80;97.40
53282;DHT22;39167;52.794;6.892;2023-04-06T13:09:17;12.80;97.60
53282;DHT22;39167;52.794;6.892;2023-04-06T13:11:43;12.80;97.40
53282;DHT22;39167;52.794;6.892;2023-04-06T13:14:09;12.80;97.30
53282;DHT22;39167;52.794;6.892;2023-04-06T13:16:35;12.90;97.30
53282;DHT22;39167;52.794;6.892;2023-04-06T13:19:01;12.90;97.20
53282;DHT22;39167;52.794;6.892;2023-04-06T13:21:28;12.90;97.30
53282;DHT22;39167;52.794;6.892;2023-04-06T13:23:53;12.90;97.00
53282;DHT22;39167;52.794;6.892;2023-04-06T13:26:19;12.90;96.60
53282;DHT22;39167;52.794;6.892;2023-04-06T13:28:45;12.90;96.50
53282;DHT22;39167;52.794;6.892;2023-04-06T13:31:11;12.90;96.70
53282;DHT22;39167;52.794;6.892;2023-04-06T13:33:36;12.90;96.70
53282;DHT22;39167;52.794;6.892;2023-04-06T13:36:03;12.90;96.80
53282;DHT22;39167;52.794;6.892;2023-04-06T13:38:29;13.00;97.00
53282;DHT22;39167;52.794;6.892;2023-04-06T13:40:55;13.30;97.00
53282;DHT22;39167;52.794;6.892;2023-04-06T13:43:21;13.00;96.90
53282;DHT22;39167;52.794;6.892;2023-04-06T13:45:51;13.00;96.70
53282;DHT22;39167;52.794;6.892;2023-04-06T13:48:17;13.10;96.90
53282;DHT22;39167;52.794;6.892;2023-04-06T13:50:45;13.10;97.00
53282;DHT22;39167;52.794;6.892;2023-04-06T13:53:11;13.10;97.20
53282;DHT22;39167;52.794;6.892;2023-04-06T13:55:37;13.20;97.40
53282;DHT22;39167;52.794;6.892;2023-04-06T13:58:03;13.10;97.60
53282;DHT22;39167;52.794;6.892;2023-04-06T14:00:28;13.10;97.80
53282;DHT22;39167;52.794;6.892;2023-04-06T14:02:54;13.10;97.60
53282;DHT22;39167;52.794;6.892;2023-04-06T14:05:23;12.80;97.40
53282;DHT22;39167;52.794;6.892;2023-04-06T14:07:49;13.00;97.30
53282;DHT22;39167;52.794;6.892;2023-04-06T14:10:15;13.00;97.40
53282;DHT22;39167;52.794;6.892;2023-04-06T14:12:42;13.00;97.70
53282;DHT22;39167;52.794;6.892;2023-04-06T14:15:11;12.90;98.10
53282;DHT22;39167;52.794;6.892;2023-04-06T14:17:37;12.90;98.60
53282;DHT22;39167;52.794;6.892;2023-04-06T14:20:05;12.80;98.60
53282;DHT22;39167;52.794;6.892;2023-04-06T14:22:31;12.90;98.90
53282;DHT22;39167;52.794;6.892;2023-04-06T14:24:57;12.80;99.20
53282;DHT22;39167;52.794;6.892;2023-04-06T14:27:23;12.80;99.20
53282;DHT22;39167;52.794;6.892;2023-04-06T14:29:49;12.70;99.20
53282;DHT22;39167;52.794;6.892;2023-04-06T14:32:16;12.70;99.50
53282;DHT22;39167;52.794;6.892;2023-04-06T14:34:42;12.70;99.50
53282;DHT22;39167;52.794;6.892;2023-04-06T14:37:08;12.70;99.80
53282;DHT22;39167;52.794;6.892;2023-04-06T14:39:34;12.70;99.90
53282;DHT22;39167;52.794;6.892;2023-04-06T14:41:59;13.00;99.90
53282;DHT22;39167;52.794;6.892;2023-04-06T14:44:25;12.70;99.90
53282;DHT22;39167;52.794;6.892;2023-04-06T14:46:51;12.60;99.90
53282;DHT22;39167;52.794;6.892;2023-04-06T14:49:17;12.60;99.80
53282;DHT22;39167;52.794;6.892;2023-04-06T14:51:43;12.50;99.70
53282;DHT22;39167;52.794;6.892;2023-04-06T14:54:08;12.40;99.80
53282;DHT22;39167;52.794;6.892;2023-04-06T14:56:34;12.40;99.90
53282;DHT22;39167;52.794;6.892;2023-04-06T14:59:00;12.30;99.90
53282;DHT22;39167;52.794;6.892;2023-04-06T15:01:27;12.30;99.90
53282;DHT22;39167;52.794;6.892;2023-04-06T15:03:53;12.20;99.90
53282;DHT22;39167;52.794;6.892;2023-04-06T15:06:19;12.20;99.90
53282;DHT22;39167;52.794;6.892;2023-04-06T15:08:46;12.10;99.90
53282;DHT22;39167;52.794;6.892;2023-04-06T15:11:12;12.10;99.90
53282;DHT22;39167;52.794;6.892;2023-04-06T15:13:39;12.10;99.90
53282;DHT22;39167;52.794;6.892;2023-04-06T15:16:06;12.00;99.90
53282;DHT22;39167;52.794;6.892;2023-04-06T15:18:32;11.70;99.90
53282;DHT22;39167;52.794;6.892;2023-04-06T15:20:58;12.00;99.90
53282;DHT22;39167;52.794;6.892;2023-04-06T15:23:24;12.00;99.90
53282;DHT22;39167;52.794;6.892;2023-04-06T15:25:50;12.00;99.90
53282;DHT22;39167;52.794;6.892;2023-04-06T15:28:16;12.00;99.90
53282;DHT22;39167;52.794;6.892;2023-04-06T15:30:41;11.90;99.90
53282;DHT22;39167;52.794;6.892;2023-04-06T15:33:08;12.00;99.90
53282;DHT22;39167;52.794;6.892;2023-04-06T15:35:33;11.90;99.90
53282;DHT22;39167;52.794;6.892;2023-04-06T15:38:10;11.90;99.90
53282;DHT22;39167;52.794;6.892;2023-04-06T15:40:44;11.90;99.90
53282;DHT22;39167;52.794;6.892;2023-04-06T15:43:13;11.90;99.90
53282;DHT22;39167;52.794;6.892;2023-04-06T15:45:40;11.80;99.90
53282;DHT22;39167;52.794;6.892;2023-04-06T15:48:06;11.80;99.90
53282;DHT22;39167;52.794;6.892;2023-04-06T15:50:32;11.70;99.90